Maplesville, Alabama
Current Conditions -  °F | °C
As of 5:53 PM on Wednesday 28 Jan 2015 (Local Time) from KEET Reporting Station
Clear Clear  
Wind Chill: 49°   Ceiling: Unl
Heat Index: 49°   Visibility: 10mi
Dew Point: 32°   Wind: 0mph
Humidity: 52%   Direction: NA
Pressure: 30.25"   Gusts: NA
Location:  32.79°N, 86.87°W
Report Text: KEET 282353Z AUTO 00000KT 10SM CLR 09/00 A3025 RMK AO2 SLP244 T00940000 10144 20094 53001
Loading
Personal Weather Stations






























Interactive Weather Map New forecast layout! Learn more

10-Day Weather Forecast

Advertisements
Track Severe Weather on mobile